Time;durP1;ratioP1;P1;durP2;ratioP2;P2;SDS_P1;SDS_P2;PMS_P1;PMS_P2;Temp;Humidity;BMP_temperature;BMP_pressure;BME280_temperature;BME280_humidity;BME280_pressure;Samples;Min_cycle;Max_cycle;Signal;HPM_P1;HPM_P2
2022/07/13 00:01:57;;;;;;;7.03;4.33;;;;;;;17.17;97.90;100547.09;5025764;28;20288;-58
2022/07/13 00:04:28;;;;;;;6.43;5.03;;;;;;;17.18;97.64;100538.25;5026797;28;20335;-58
2022/07/13 00:06:58;;;;;;;8.57;4.60;;;;;;;17.19;97.86;100534.69;5026431;28;20292;-57
2022/07/13 00:09:29;;;;;;;8.03;4.73;;;;;;;17.30;97.82;100541.31;5026396;28;20292;-57
2022/07/13 00:11:59;;;;;;;8.80;4.43;;;;;;;17.37;97.04;100542.78;5026444;28;20289;-57
2022/07/13 00:14:32;;;;;;;9.37;4.63;;;;;;;17.50;96.77;100544.03;5024567;28;20573;-58
2022/07/13 00:17:02;;;;;;;5.47;4.43;;;;;;;17.79;95.61;100539.31;5026292;28;20296;-58
2022/07/13 00:19:33;;;;;;;7.77;4.63;;;;;;;17.98;94.39;100540.31;5026485;28;20294;-58
2022/07/13 00:22:04;;;;;;;6.30;4.10;;;;;;;18.03;93.56;100543.59;5026646;28;20327;-58
2022/07/13 00:24:34;;;;;;;7.87;4.60;;;;;;;18.02;93.82;100541.91;5026361;28;20554;-58
2022/07/13 00:27:05;;;;;;;7.20;4.70;;;;;;;17.99;93.20;100547.28;5026442;28;20331;-58
2022/07/13 00:29:37;;;;;;;11.53;5.10;;;;;;;17.90;93.25;100553.00;5025801;28;20289;-58
2022/07/13 00:32:08;;;;;;;5.40;4.17;;;;;;;17.78;93.27;100538.47;5026397;28;20280;-57
2022/07/13 00:34:38;;;;;;;7.67;4.70;;;;;;;18.00;92.94;100551.69;5026302;28;21049;-58
2022/07/13 00:37:09;;;;;;;8.53;5.40;;;;;;;18.23;93.23;100549.81;5026278;28;20281;-58
2022/07/13 00:39:39;;;;;;;6.77;4.17;;;;;;;18.64;92.17;100555.06;5020136;28;20429;-57
2022/07/13 00:42:10;;;;;;;12.70;4.20;;;;;;;18.91;89.29;100559.13;5024934;28;20272;-58
2022/07/13 00:44:43;;;;;;;7.80;4.27;;;;;;;18.90;88.36;100546.81;5024733;28;20287;-57
2022/07/13 00:47:14;;;;;;;10.17;4.30;;;;;;;18.45;88.11;100489.75;5024855;28;20311;-58
2022/07/13 00:49:45;;;;;;;4.50;4.07;;;;;;;18.83;88.63;100555.97;5024305;28;20347;-58
2022/07/13 00:52:16;;;;;;;8.17;4.23;;;;;;;18.66;88.99;100537.31;5023970;28;20585;-57
2022/07/13 00:54:47;;;;;;;7.03;4.47;;;;;;;18.56;88.34;100558.03;5023639;28;20362;-57
2022/07/13 00:57:18;;;;;;;5.70;4.30;;;;;;;18.30;89.12;100556.56;5024833;28;20299;-57
2022/07/13 00:59:53;;;;;;;6.63;4.30;;;;;;;18.13;90.82;100553.78;5025618;28;20289;-57
2022/07/13 01:02:24;;;;;;;7.43;4.20;;;;;;;18.02;91.22;100557.75;5025794;28;20312;-58
2022/07/13 01:04:54;;;;;;;6.60;4.27;;;;;;;17.94;91.80;100567.78;5025639;28;20284;-58
2022/07/13 01:07:26;;;;;;;6.13;4.40;;;;;;;17.88;92.37;100566.25;5025989;28;20556;-58
2022/07/13 01:09:57;;;;;;;7.80;4.60;;;;;;;17.92;93.11;100559.03;5024717;28;20600;-58
2022/07/13 01:12:30;;;;;;;8.17;4.60;;;;;;;17.95;93.18;100566.88;5025609;28;20265;-57
2022/07/13 01:15:04;;;;;;;9.43;4.60;;;;;;;17.85;93.06;100536.47;5016791;28;20292;-58
2022/07/13 01:17:37;;;;;;;8.53;5.40;;;;;;;17.83;93.14;100530.38;5014469;28;20284;-56
2022/07/13 01:20:09;;;;;;;8.93;4.80;;;;;;;18.10;92.56;100566.22;5012598;28;20348;-58
2022/07/13 01:22:45;;;;;;;10.17;5.70;;;;;;;18.07;92.07;100550.50;5010864;28;20461;-58
2022/07/13 01:25:18;;;;;;;9.00;5.20;;;;;;;18.09;92.70;100558.34;5013561;28;20288;-58
2022/07/13 01:27:50;;;;;;;6.60;5.40;;;;;;;18.07;92.53;100555.78;5015142;28;20293;-58
2022/07/13 01:30:21;;;;;;;10.67;5.57;;;;;;;18.03;92.27;100562.13;5015733;28;20289;-57
2022/07/13 01:32:52;;;;;;;7.87;5.53;;;;;;;18.03;92.62;100562.13;5015739;28;20289;-56
2022/07/13 01:35:24;;;;;;;12.57;6.23;;;;;;;17.99;92.94;100563.16;5009872;28;20305;-58
2022/07/13 01:37:56;;;;;;;8.27;5.90;;;;;;;18.06;92.58;100559.34;5015389;28;20276;-58
2022/07/13 01:40:29;;;;;;;8.27;5.97;;;;;;;18.03;92.68;100559.47;5017387;28;20364;-57
2022/07/13 01:42:59;;;;;;;8.93;5.60;;;;;;;18.01;93.29;100566.59;5019592;28;20276;-58
2022/07/13 01:45:30;;;;;;;12.23;6.50;;;;;;;18.00;93.46;100564.91;5019390;28;20272;-57
2022/07/13 01:48:00;;;;;;;14.30;6.77;;;;;;;17.97;93.40;100565.03;5019152;28;20293;-59
2022/07/13 01:50:31;;;;;;;14.07;7.07;;;;;;;17.95;93.52;100561.59;5019586;28;20288;-57
2022/07/13 01:53:01;;;;;;;9.93;6.67;;;;;;;17.95;94.00;100561.59;5019238;28;20331;-58
2022/07/13 01:55:33;;;;;;;9.33;6.80;;;;;;;17.94;93.56;100559.00;5019050;28;20323;-58
2022/07/13 01:58:04;;;;;;;14.07;6.73;;;;;;;18.04;94.17;100561.19;5018928;28;20292;-58
2022/07/13 02:00:34;;;;;;;15.83;6.70;;;;;;;18.18;93.60;100557.94;5018932;28;20277;-58
2022/07/13 02:03:05;;;;;;;9.50;6.17;;;;;;;18.29;93.17;100565.41;5019435;28;20264;-58
2022/07/13 02:05:36;;;;;;;7.13;5.73;;;;;;;18.30;92.18;100557.41;5018964;28;20311;-57
2022/07/13 02:08:07;;;;;;;12.90;7.07;;;;;;;18.40;92.67;100557.88;5019055;28;20281;-58
2022/07/13 02:10:39;;;;;;;11.03;6.63;;;;;;;18.45;92.07;100558.53;5018844;28;20871;-58
2022/07/13 02:13:12;;;;;;;14.93;6.23;;;;;;;18.44;91.68;100559.44;5018583;28;20297;-55
2022/07/13 02:15:44;;;;;;;11.57;7.30;;;;;;;18.38;91.91;100554.44;5018592;28;20356;-59
2022/07/13 02:18:15;;;;;;;11.87;6.80;;;;;;;18.36;91.57;100564.22;5018442;28;20440;-57
2022/07/13 02:20:45;;;;;;;9.33;7.10;;;;;;;18.35;92.07;100559.88;5018317;28;20297;-58
2022/07/13 02:23:16;;;;;;;11.97;7.37;;;;;;;18.31;92.10;100552.97;5018693;28;20336;-59
2022/07/13 02:25:49;;;;;;;17.90;7.30;;;;;;;18.06;92.05;100527.59;5018699;28;20289;-55
2022/07/13 02:28:19;;;;;;;10.17;6.30;;;;;;;18.27;92.68;100556.69;5018758;28;20351;-58
2022/07/13 02:30:50;;;;;;;16.27;7.23;;;;;;;18.17;92.40;100536.84;5018117;28;20287;-59
2022/07/13 02:33:20;;;;;;;12.87;6.77;;;;;;;18.36;92.65;100548.34;5018201;28;20442;-59
2022/07/13 02:35:51;;;;;;;14.20;7.23;;;;;;;18.41;91.64;100549.00;5018334;28;20304;-58
2022/07/13 02:38:21;;;;;;;13.57;6.67;;;;;;;18.41;91.37;100543.72;5018355;28;20281;-58
2022/07/13 02:40:53;;;;;;;15.17;6.70;;;;;;;18.30;91.71;100538.91;5018272;28;20277;-57
2022/07/13 02:43:24;;;;;;;9.70;6.70;;;;;;;18.23;92.28;100536.59;5018529;28;20293;-57
2022/07/13 02:45:54;;;;;;;16.03;7.03;;;;;;;17.75;92.56;100469.88;5018091;28;20291;-58
2022/07/13 02:48:25;;;;;;;18.27;7.43;;;;;;;17.99;92.81;100502.34;5018056;28;20335;-58
2022/07/13 02:50:55;;;;;;;14.77;7.10;;;;;;;18.23;93.66;100524.22;5017137;28;20289;-58
2022/07/13 02:53:26;;;;;;;10.47;7.40;;;;;;;18.32;93.47;100522.94;5017544;28;20333;-57
2022/07/13 02:55:58;;;;;;;13.27;7.40;;;;;;;18.43;93.38;100531.28;5018029;28;20501;-56
2022/07/13 02:58:29;;;;;;;16.10;7.13;;;;;;;18.48;92.55;100529.28;5017884;28;20300;-58
2022/07/13 03:00:59;;;;;;;16.57;7.03;;;;;;;18.60;92.62;100521.75;5017405;28;20350;-57
2022/07/13 03:03:30;;;;;;;16.43;6.97;;;;;;;18.78;92.12;100515.63;5017828;28;20935;-59
2022/07/13 03:06:01;;;;;;;12.93;6.80;;;;;;;18.57;90.71;100458.34;5016698;28;20301;-58
2022/07/13 03:08:32;;;;;;;10.60;6.40;;;;;;;18.94;90.14;100511.31;5013997;28;20297;-56
2022/07/13 03:11:04;;;;;;;15.27;6.73;;;;;;;18.91;90.18;100498.22;5014585;28;20301;-58
2022/07/13 03:13:35;;;;;;;9.10;6.30;;;;;;;19.15;89.13;100513.88;5016587;28;20285;-57
2022/07/13 03:16:06;;;;;;;10.10;6.33;;;;;;;19.21;88.84;100513.56;5016910;28;20281;-56
2022/07/13 03:18:36;;;;;;;9.87;6.70;;;;;;;19.23;88.48;100517.03;5017754;28;20342;-58
2022/07/13 03:21:09;;;;;;;9.43;6.40;;;;;;;19.22;88.25;100515.31;5017372;28;20348;-56
2022/07/13 03:23:39;;;;;;;10.07;6.53;;;;;;;19.11;89.01;100512.31;5016758;28;20577;-57
2022/07/13 03:26:12;;;;;;;10.97;6.30;;;;;;;19.10;89.38;100510.59;5016419;28;20651;-57
2022/07/13 03:28:42;;;;;;;11.00;6.63;;;;;;;19.04;90.02;100510.88;5014791;28;20592;-59
2022/07/13 03:31:13;;;;;;;22.53;8.03;;;;;;;19.07;90.11;100510.72;5014551;28;20424;-58
2022/07/13 03:33:44;;;;;;;10.33;6.30;;;;;;;19.09;89.96;100524.75;5011895;28;20324;-57
2022/07/13 03:36:14;;;;;;;11.63;6.13;;;;;;;19.05;89.99;100517.91;5016326;28;20300;-57
2022/07/13 03:38:45;;;;;;;12.77;6.60;;;;;;;19.07;90.25;100522.22;5017496;28;20588;-58
2022/07/13 03:41:17;;;;;;;9.47;6.17;;;;;;;19.01;89.80;100511.03;5016986;28;20578;-58
2022/07/13 03:43:48;;;;;;;16.77;6.40;;;;;;;18.99;89.77;100518.19;5017146;28;20489;-58
2022/07/13 03:46:19;;;;;;;11.63;6.17;;;;;;;19.15;90.08;100513.88;5016711;28;20280;-57
2022/07/13 03:48:49;;;;;;;10.70;6.40;;;;;;;19.17;89.29;100506.72;5016726;28;20311;-57
2022/07/13 03:51:20;;;;;;;8.10;6.23;;;;;;;18.64;88.49;100417.44;5016950;28;20344;-57
2022/07/13 03:53:51;;;;;;;13.33;6.73;;;;;;;19.20;88.99;100500.44;5016620;28;20293;-56
2022/07/13 03:56:23;;;;;;;9.73;6.50;;;;;;;19.16;88.89;100499.69;5016971;28;20296;-58
2022/07/13 03:58:54;;;;;;;8.97;6.53;;;;;;;19.27;89.17;100502.69;5017037;28;20303;-57
2022/07/13 04:01:24;;;;;;;7.77;6.20;;;;;;;19.19;88.33;100462.47;5017175;28;20292;-57
2022/07/13 04:03:55;;;;;;;13.20;6.63;;;;;;;19.22;87.97;100438.50;5016442;28;20277;-57
2022/07/13 04:06:26;;;;;;;15.20;6.93;;;;;;;19.70;87.77;100495.31;5016601;28;20292;-57
2022/07/13 04:08:56;;;;;;;11.47;6.50;;;;;;;19.88;87.38;100487.34;5016362;28;20285;-54
2022/07/13 04:11:29;;;;;;;9.23;6.27;;;;;;;19.98;86.28;100488.56;5016586;28;20347;-55
2022/07/13 04:13:59;;;;;;;9.40;6.53;;;;;;;20.07;86.11;100497.84;5016374;28;20297;-57
2022/07/13 04:16:30;;;;;;;10.63;6.13;;;;;;;20.00;85.15;100486.72;5016182;28;20304;-57
2022/07/13 04:19:01;;;;;;;12.63;6.60;;;;;;;19.86;85.75;100494.50;5015915;28;20350;-57
2022/07/13 04:21:31;;;;;;;13.87;7.23;;;;;;;19.70;86.18;100486.50;5012963;28;20553;-55
2022/07/13 04:24:02;;;;;;;11.23;7.47;;;;;;;19.20;87.09;100431.56;5014347;28;20524;-57
2022/07/13 04:26:34;;;;;;;9.00;6.60;;;;;;;19.49;87.84;100491.03;5016144;28;20285;-58
2022/07/13 04:29:05;;;;;;;11.40;7.40;;;;;;;19.61;87.95;100495.72;5016656;28;20295;-58
2022/07/13 04:31:36;;;;;;;14.20;7.50;;;;;;;19.70;87.26;100494.44;5016436;28;20346;-57
2022/07/13 04:34:06;;;;;;;9.97;6.87;;;;;;;19.74;87.13;100486.22;5016438;28;20347;-57
2022/07/13 04:36:37;;;;;;;14.30;7.63;;;;;;;19.79;86.93;100484.25;5014256;28;20284;-57
2022/07/13 04:39:07;;;;;;;11.40;7.07;;;;;;;19.72;86.25;100485.47;5015944;28;20281;-57
2022/07/13 04:41:40;;;;;;;11.73;7.40;;;;;;;19.46;87.19;100428.44;5016287;28;20289;-56
2022/07/13 04:44:10;;;;;;;11.23;7.60;;;;;;;19.92;86.53;100483.56;5016100;28;20280;-57
2022/07/13 04:46:41;;;;;;;11.40;7.40;;;;;;;19.99;86.24;100488.50;5016105;28;20348;-57
2022/07/13 04:49:12;;;;;;;13.33;7.23;;;;;;;20.20;86.26;100483.88;5016310;28;20285;-57
2022/07/13 04:51:43;;;;;;;16.40;7.83;;;;;;;20.37;84.81;100474.16;5015922;28;20284;-57
2022/07/13 04:54:13;;;;;;;18.47;7.60;;;;;;;20.13;83.95;100407.34;5013058;28;20293;-56
2022/07/13 04:56:46;;;;;;;7.77;6.70;;;;;;;20.65;82.64;100474.38;5015636;28;20324;-57
2022/07/13 04:59:17;;;;;;;11.03;6.70;;;;;;;20.79;82.61;100470.09;5014393;28;20699;-58
2022/07/13 05:01:47;;;;;;;12.60;6.70;;;;;;;21.01;82.31;100470.63;5014714;28;20288;-56
2022/07/13 05:04:18;;;;;;;12.37;6.67;;;;;;;21.10;80.98;100463.94;5015248;28;20313;-57
2022/07/13 05:06:49;;;;;;;11.00;6.53;;;;;;;21.20;81.32;100464.28;5015650;28;20289;-56
2022/07/13 05:09:19;;;;;;;12.47;6.87;;;;;;;21.44;80.19;100460.22;5015510;28;20335;-57
2022/07/13 05:11:52;;;;;;;12.77;6.60;;;;;;;21.63;80.54;100461.78;5015641;28;20281;-57
2022/07/13 05:14:22;;;;;;;23.70;6.47;;;;;;;21.61;80.12;100453.03;5014809;28;20292;-57
2022/07/13 05:16:53;;;;;;;11.53;6.30;;;;;;;21.43;79.52;100466.47;5010433;28;20592;-57
2022/07/13 05:19:23;;;;;;;15.63;6.77;;;;;;;21.05;80.98;100466.84;5015177;28;20311;-58
2022/07/13 05:21:54;;;;;;;9.60;7.00;;;;;;;20.73;82.28;100465.16;5015170;28;20489;-56
2022/07/13 05:24:24;;;;;;;14.40;6.57;;;;;;;20.53;83.20;100459.09;5015073;28;20475;-56
2022/07/13 05:26:56;;;;;;;8.47;6.57;;;;;;;20.50;83.59;100453.97;5015294;28;20277;-58
2022/07/13 05:29:27;;;;;;;19.10;6.93;;;;;;;20.37;84.22;100452.94;5015065;28;20295;-57
2022/07/13 05:31:58;;;;;;;20.20;7.17;;;;;;;20.40;84.82;100452.75;5015259;28;20574;-57
2022/07/13 05:34:28;;;;;;;12.90;6.90;;;;;;;20.52;84.54;100454.75;5015393;28;20449;-57
2022/07/13 05:36:59;;;;;;;10.10;7.07;;;;;;;20.47;84.05;100454.13;5015305;28;20319;-55
2022/07/13 05:39:30;;;;;;;9.47;7.07;;;;;;;20.42;84.64;100450.88;5011833;28;20307;-58
2022/07/13 05:42:02;;;;;;;9.87;6.57;;;;;;;20.33;84.15;100446.06;5013422;28;20505;-57
2022/07/13 05:44:33;;;;;;;13.50;6.47;;;;;;;20.18;84.90;100451.25;5014922;28;20684;-56
2022/07/13 05:47:03;;;;;;;11.03;6.63;;;;;;;19.71;85.43;100380.34;5015168;28;20303;-56
2022/07/13 05:49:34;;;;;;;10.03;7.27;;;;;;;20.06;85.75;100451.03;5015325;28;20281;-57
2022/07/13 05:52:05;;;;;;;8.97;6.77;;;;;;;19.94;86.18;100441.94;5013233;28;20412;-58
2022/07/13 05:54:36;;;;;;;16.13;7.60;;;;;;;19.90;86.86;100448.34;5014432;28;20289;-54
2022/07/13 05:57:16;;;;;;;9.55;6.45;;;;;;;19.90;86.57;100458.94;5015137;28;20633;-57
2022/07/13 05:59:46;;;;;;;11.90;6.57;;;;;;;19.79;87.06;100441.81;5015405;28;20112;-57
2022/07/13 06:02:17;;;;;;;13.43;7.27;;;;;;;19.79;87.37;100447.13;5015373;28;20280;-56
2022/07/13 06:04:48;;;;;;;12.53;6.70;;;;;;;19.85;87.90;100443.28;5015492;28;20324;-56
2022/07/13 06:07:18;;;;;;;7.67;6.17;;;;;;;20.00;87.25;100441.63;5014789;28;20293;-56
2022/07/13 06:09:49;;;;;;;21.60;6.83;;;;;;;20.09;87.41;100449.06;5014903;28;20288;-56
2022/07/13 06:12:21;;;;;;;15.97;7.13;;;;;;;20.09;86.80;100448.22;5012080;28;20305;-57
2022/07/13 06:14:52;;;;;;;10.33;6.20;;;;;;;20.08;86.70;100444.72;5014850;28;20293;-57
2022/07/13 06:17:24;;;;;;;17.80;6.73;;;;;;;20.03;86.91;100454.72;5014690;28;20327;-57
2022/07/13 06:19:54;;;;;;;22.50;7.40;;;;;;;19.71;86.76;100413.97;5014936;28;20659;-58
2022/07/13 06:22:25;;;;;;;21.43;7.23;;;;;;;19.83;87.16;100459.25;5014950;28;20277;-56
2022/07/13 06:24:55;;;;;;;12.83;6.13;;;;;;;19.75;87.00;100456.16;5014530;28;20411;-56
2022/07/13 06:27:27;;;;;;;13.73;6.03;;;;;;;19.75;87.23;100461.44;5017933;28;20292;-56
2022/07/13 06:29:58;;;;;;;8.37;6.03;;;;;;;19.74;87.28;100454.41;5033663;28;20328;-57
2022/07/13 06:32:29;;;;;;;15.00;6.20;;;;;;;19.76;87.54;100449.91;5018264;28;20300;-56
2022/07/13 06:34:59;;;;;;;10.90;5.90;;;;;;;19.66;87.14;100445.97;5018052;28;20573;-57
2022/07/13 06:37:30;;;;;;;16.90;6.30;;;;;;;19.79;87.48;100452.41;5018000;28;20283;-58
2022/07/13 06:40:15;;;;;;;14.33;5.20;;;;;;;19.97;86.84;100449.75;5018125;28;20299;-57
2022/07/13 06:42:47;;;;;;;8.83;5.53;;;;;;;19.92;86.31;100449.09;5018026;28;20285;-56
2022/07/13 06:45:18;;;;;;;10.47;5.50;;;;;;;20.01;86.49;100448.63;5015765;28;20296;-58
2022/07/13 06:47:48;;;;;;;7.37;4.90;;;;;;;20.02;85.41;100448.56;5014809;28;20585;-58
2022/07/13 06:50:19;;;;;;;16.33;5.40;;;;;;;19.96;85.31;100453.31;5017515;28;20346;-57
2022/07/13 06:52:50;;;;;;;6.60;5.07;;;;;;;19.94;85.91;100457.84;5017928;28;20845;-57
2022/07/13 06:55:21;;;;;;;11.67;5.77;;;;;;;19.94;86.06;100455.19;5017850;28;20288;-55
2022/07/13 06:57:53;;;;;;;11.87;5.17;;;;;;;19.80;86.45;100454.13;5018073;28;20315;-56
2022/07/13 07:00:24;;;;;;;10.47;5.40;;;;;;;19.77;87.00;100443.69;5017906;28;20612;-57
2022/07/13 07:02:55;;;;;;;11.57;5.53;;;;;;;19.76;86.81;100441.94;5017652;28;20295;-56
2022/07/13 07:05:26;;;;;;;10.90;5.23;;;;;;;19.71;87.35;100443.97;5017961;28;20312;-57
2022/07/13 07:07:56;;;;;;;8.27;6.00;;;;;;;19.65;87.26;100438.13;5017645;28;20633;-56
2022/07/13 07:10:27;;;;;;;7.93;5.80;;;;;;;19.57;88.16;100430.56;5017664;28;20307;-56
2022/07/13 07:13:06;;;;;;;8.80;5.93;;;;;;;19.38;88.24;100415.56;5017335;28;20293;-57
2022/07/13 07:15:37;;;;;;;7.63;5.70;;;;;;;19.51;89.03;100436.16;5017200;28;20305;-57
2022/07/13 07:18:08;;;;;;;8.90;6.40;;;;;;;19.37;88.79;100440.38;5017204;28;20279;-56
2022/07/13 07:20:39;;;;;;;18.13;5.87;;;;;;;19.34;88.88;100440.50;5017322;28;20609;-57
2022/07/13 07:23:09;;;;;;;17.07;6.20;;;;;;;19.11;89.27;100407.22;5017251;28;20281;-57
2022/07/13 07:25:40;;;;;;;18.53;7.80;;;;;;;19.23;89.26;100437.53;5017317;28;20269;-58
2022/07/13 07:28:12;;;;;;;9.27;6.77;;;;;;;19.19;89.22;100441.28;5017295;28;20513;-57
2022/07/13 07:30:43;;;;;;;13.20;7.20;;;;;;;19.08;89.44;100438.31;5016943;28;20299;-57
2022/07/13 07:33:13;;;;;;;8.90;6.17;;;;;;;19.00;89.85;100440.47;5016990;28;20332;-58
2022/07/13 07:35:44;;;;;;;18.57;6.17;;;;;;;18.88;90.20;100437.47;5016958;28;20291;-57
2022/07/13 07:38:14;;;;;;;20.27;6.57;;;;;;;18.84;90.70;100435.91;5016324;28;20633;-57
2022/07/13 07:40:45;;;;;;;10.27;5.87;;;;;;;18.85;90.89;100426.19;5016229;28;20285;-57
2022/07/13 07:43:17;;;;;;;11.23;5.90;;;;;;;18.48;91.04;100369.69;5016846;28;20357;-57
2022/07/13 07:45:48;;;;;;;14.63;5.47;;;;;;;18.83;90.94;100428.91;5016793;28;20368;-58
2022/07/13 07:48:18;;;;;;;9.73;5.40;;;;;;;18.81;90.57;100428.09;5015364;28;20343;-57
2022/07/13 07:50:49;;;;;;;10.03;4.87;;;;;;;18.83;90.62;100428.91;5011194;28;20356;-57
2022/07/13 07:53:20;;;;;;;9.97;4.80;;;;;;;18.70;90.51;100422.44;5015642;28;20454;-59
2022/07/13 07:55:50;;;;;;;16.00;5.43;;;;;;;18.51;90.59;100402.13;5017198;28;20285;-57
2022/07/13 07:58:22;;;;;;;7.17;4.90;;;;;;;18.63;91.07;100431.59;5016653;28;20287;-58
2022/07/13 08:00:53;;;;;;;7.23;4.80;;;;;;;18.28;90.97;100378.56;5016059;28;20293;-55
2022/07/13 08:03:24;;;;;;;6.97;5.20;;;;;;;18.68;90.92;100430.44;5013961;28;20291;-58
2022/07/13 08:05:57;;;;;;;8.27;4.57;;;;;;;18.60;90.67;100431.75;5015565;28;20628;-59
2022/07/13 08:08:27;;;;;;;22.20;4.77;;;;;;;18.56;91.11;100435.47;5014513;28;20304;-58
2022/07/13 08:10:58;;;;;;;9.67;5.10;;;;;;;18.53;91.46;100434.66;5015904;28;20284;-57
2022/07/13 08:13:30;;;;;;;13.03;5.37;;;;;;;18.63;91.55;100436.91;5016288;28;20292;-57
2022/07/13 08:16:01;;;;;;;11.43;4.97;;;;;;;18.68;91.14;100435.75;5015609;28;20289;-57
2022/07/13 08:18:31;;;;;;;11.40;5.73;;;;;;;18.62;90.77;100451.03;5012594;28;20311;-57
2022/07/13 08:21:22;;;;;;;9.80;5.23;;;;;;;18.49;91.05;100446.31;5028023;28;20466;-57
2022/07/13 08:23:53;;;;;;;7.63;5.47;;;;;;;18.42;91.17;100450.22;5014765;28;20360;-56
2022/07/13 08:26:25;;;;;;;12.40;5.90;;;;;;;18.27;91.71;100453.53;5013971;28;20297;-57
2022/07/13 08:28:59;;;;;;;10.57;6.20;;;;;;;18.18;92.31;100451.31;5011238;28;20365;-59
2022/07/13 08:31:29;;;;;;;11.87;6.07;;;;;;;18.13;92.74;100459.44;5012957;28;20308;-57
2022/07/13 08:39:35;;;;;;;28.10;7.43;;;;;;;17.85;93.96;100465.09;5013875;28;20335;-58
2022/07/13 08:42:07;;;;;;;18.50;7.03;;;;;;;17.59;94.54;100422.09;5012891;28;20297;-58
2022/07/13 08:44:39;;;;;;;15.00;6.87;;;;;;;17.75;94.71;100454.03;5013358;28;20309;-58
2022/07/13 08:47:12;;;;;;;13.80;7.23;;;;;;;17.61;95.02;100457.25;5015864;28;20285;-58
2022/07/13 08:49:43;;;;;;;11.37;7.03;;;;;;;17.49;95.67;100463.03;5015178;28;20404;-58
2022/07/13 08:52:14;;;;;;;10.43;7.63;;;;;;;17.38;96.13;100471.41;5015872;28;20285;-57
2022/07/13 08:54:45;;;;;;;11.67;7.50;;;;;;;17.30;96.88;100462.06;5015955;28;20365;-58
2022/07/13 08:57:17;;;;;;;17.43;7.80;;;;;;;17.28;97.33;100458.66;5011712;28;20308;-57
2022/07/13 08:59:49;;;;;;;11.53;8.20;;;;;;;17.27;97.65;100457.78;5020103;28;20297;-58
2022/07/13 09:02:20;;;;;;;20.13;8.33;;;;;;;17.21;97.59;100458.91;5025338;28;20288;-57
2022/07/13 09:04:51;;;;;;;13.07;7.67;;;;;;;17.16;97.84;100463.50;5024698;28;20320;-57
2022/07/13 09:07:22;;;;;;;18.47;8.43;;;;;;;17.12;98.28;100459.25;5025975;28;20287;-57
2022/07/13 09:09:57;;;;;;;11.90;7.70;;;;;;;17.00;98.09;100438.66;5025602;28;20277;-58
2022/07/13 09:12:37;;;;;;;11.33;7.63;;;;;;;17.04;98.14;100456.94;5025404;28;20276;-58
2022/07/13 09:15:11;;;;;;;18.13;8.83;;;;;;;17.03;98.41;100464.94;5025382;28;20281;-58
2022/07/13 09:17:43;;;;;;;15.53;8.30;;;;;;;16.97;98.57;100471.31;5025009;28;20292;-58
2022/07/13 09:20:22;;;;;;;13.47;8.83;;;;;;;16.95;98.79;100467.88;5025337;28;20288;-58
2022/07/13 09:23:05;;;;;;;20.93;8.77;;;;;;;16.98;99.12;100477.47;5024173;28;20295;-58
2022/07/13 09:25:37;;;;;;;15.30;8.60;;;;;;;16.90;99.02;100464.56;5023252;28;20300;-59
2022/07/13 09:28:09;;;;;;;16.43;8.43;;;;;;;16.95;99.21;100477.59;5023054;28;20350;-59
2022/07/13 09:30:44;;;;;;;13.50;9.30;;;;;;;16.91;99.39;100470.69;5021325;28;20287;-58
2022/07/13 09:33:14;;;;;;;9.70;8.33;;;;;;;16.90;99.23;100474.22;5021219;28;20361;-58
2022/07/13 09:35:47;;;;;;;13.87;8.67;;;;;;;16.84;99.42;100470.06;5022019;28;20300;-58
2022/07/13 09:38:33;;;;;;;10.10;8.70;;;;;;;16.86;99.48;100472.66;5022579;28;20352;-58
2022/07/13 09:41:19;;;;;;;11.87;8.83;;;;;;;16.85;99.79;100466.53;5021289;28;20308;-58
2022/07/13 09:46:57;;;;;;;15.67;9.20;;;;;;;16.78;99.65;100472.97;5023508;28;20582;-59
2022/07/13 09:49:33;;;;;;;19.03;9.13;;;;;;;16.74;99.50;100474.81;5023695;28;20323;-57
2022/07/13 09:52:07;;;;;;;13.63;9.13;;;;;;;16.65;99.80;100459.34;5023188;28;20289;-59
2022/07/13 09:54:39;;;;;;;12.37;9.10;;;;;;;16.69;99.82;100466.22;5023965;28;20280;-57
2022/07/13 09:57:12;;;;;;;14.70;8.83;;;;;;;16.67;100.00;100462.75;5023143;28;20291;-56
2022/07/13 09:59:44;;;;;;;12.83;9.10;;;;;;;16.69;100.00;100471.47;5023822;28;20304;-57
2022/07/13 10:02:18;;;;;;;14.53;8.80;;;;;;;16.56;99.96;100459.69;5026800;28;20390;-56
2022/07/13 10:04:49;;;;;;;14.40;9.30;;;;;;;16.67;99.96;100478.59;5027076;28;20288;-58
2022/07/13 10:07:21;;;;;;;11.40;8.93;;;;;;;16.67;100.00;100488.28;5025798;28;20286;-58
2022/07/13 10:09:52;;;;;;;10.53;8.70;;;;;;;16.65;99.77;100483.09;5025632;28;20477;-57
2022/07/13 10:12:23;;;;;;;10.03;8.73;;;;;;;16.60;100.00;100477.13;5025912;28;20326;-58
2022/07/13 10:14:54;;;;;;;8.53;7.20;;;;;;;16.59;100.00;100478.03;5025952;28;20359;-58
2022/07/13 10:17:26;;;;;;;12.23;7.63;;;;;;;16.55;99.94;100473.81;5026366;28;20293;-58
2022/07/13 10:20:08;;;;;;;15.43;7.80;;;;;;;16.56;100.00;100475.50;5025741;28;20293;-57
2022/07/13 10:22:43;;;;;;;9.17;7.63;;;;;;;16.28;100.00;100423.81;5026499;28;20287;-57
2022/07/13 10:25:14;;;;;;;14.97;8.07;;;;;;;16.53;100.00;100475.63;5026776;28;20602;-57
2022/07/13 10:27:45;;;;;;;12.47;9.33;;;;;;;16.37;100.00;100444.56;5026627;28;20313;-57
2022/07/13 10:30:25;;;;;;;11.03;9.10;;;;;;;16.31;100.00;100436.88;5026649;28;20683;-57
2022/07/13 10:33:19;;;;;;;9.53;8.53;;;;;;;16.47;100.00;100475.84;5026963;28;20334;-58
2022/07/13 10:35:51;;;;;;;15.03;8.90;;;;;;;16.46;100.00;100475.00;5026739;28;20302;-58
2022/07/13 10:38:27;;;;;;;10.60;8.60;;;;;;;16.44;100.00;100466.28;5027041;28;20291;-58
2022/07/13 10:41:20;;;;;;;14.70;8.70;;;;;;;16.42;100.00;100461.97;5026638;28;20573;-58
2022/07/13 10:44:05;;;;;;;16.73;9.03;;;;;;;16.43;100.00;100469.00;5026560;28;20288;-59
2022/07/13 10:46:49;;;;;;;11.47;8.80;;;;;;;16.42;100.00;100467.25;5024491;28;20304;-59
2022/07/13 10:49:41;;;;;;;16.93;9.30;;;;;;;16.37;100.00;100470.94;4999672;28;20289;-58
2022/07/13 10:52:51;;;;;;;15.60;9.13;;;;;;;16.32;100.00;100462.31;4999716;28;20293;-59
2022/07/13 10:55:48;;;;;;;10.90;8.67;;;;;;;16.32;100.00;100466.72;5005800;28;20384;-58
2022/07/13 10:58:46;;;;;;;12.57;8.93;;;;;;;16.27;100.00;100469.53;5000795;28;20549;-58
2022/07/13 11:01:37;;;;;;;13.67;9.27;;;;;;;16.23;100.00;100465.31;5012384;28;20878;-58
2022/07/13 11:04:09;;;;;;;13.03;9.30;;;;;;;16.03;100.00;100438.81;4999592;28;20290;-58
2022/07/13 11:06:42;;;;;;;16.23;9.23;;;;;;;16.12;100.00;100451.63;5000661;28;20317;-57
2022/07/13 11:09:20;;;;;;;16.20;9.27;;;;;;;16.17;100.00;100462.88;5000793;28;20311;-58
2022/07/13 11:11:53;;;;;;;22.43;9.67;;;;;;;16.10;100.00;100457.00;5000413;28;20333;-57
2022/07/13 11:14:48;;;;;;;18.70;9.40;;;;;;;16.20;100.00;100462.78;5000316;28;20282;-57
2022/07/13 11:17:21;;;;;;;12.23;9.63;;;;;;;16.15;100.00;100464.72;5000664;28;20296;-58
2022/07/13 11:19:54;;;;;;;12.23;8.80;;;;;;;15.78;100.00;100397.53;5000736;28;20565;-58
2022/07/13 11:22:27;;;;;;;9.60;7.60;;;;;;;16.14;100.00;100463.00;5000779;28;20494;-58
2022/07/13 11:25:19;;;;;;;11.27;7.80;;;;;;;15.93;100.00;100423.31;5000836;28;20375;-59
2022/07/13 11:28:15;;;;;;;17.63;8.30;;;;;;;16.16;100.00;100455.91;5018439;28;20277;-58
2022/07/13 11:30:50;;;;;;;15.00;7.70;;;;;;;16.16;100.00;100455.91;5020112;28;20304;-57
2022/07/13 11:33:21;;;;;;;13.13;7.90;;;;;;;16.14;100.00;100463.00;5017997;28;20490;-58
2022/07/13 11:35:52;;;;;;;10.40;7.27;;;;;;;15.88;100.00;100420.00;5016109;28;20303;-58
2022/07/13 11:38:24;;;;;;;10.40;8.07;;;;;;;16.16;100.00;100477.00;5020752;28;20293;-57
2022/07/13 11:40:55;;;;;;;15.47;8.17;;;;;;;16.13;100.00;100471.84;5020654;28;20285;-58
2022/07/13 11:43:25;;;;;;;13.97;8.13;;;;;;;16.12;100.00;100470.09;5020819;28;20284;-58
2022/07/13 11:45:56;;;;;;;12.53;7.23;;;;;;;16.12;100.00;100464.81;5020712;28;20299;-58
2022/07/13 11:48:33;;;;;;;12.77;6.90;;;;;;;16.08;100.00;100471.13;5020627;28;20277;-58
2022/07/13 11:51:09;;;;;;;9.57;6.57;;;;;;;16.03;99.87;100465.16;5020347;28;20276;-58
2022/07/13 11:53:41;;;;;;;10.93;6.60;;;;;;;16.04;99.91;100477.41;5020616;28;20344;-58